sensor_id;sensor_type;location;lat;lon;timestamp;P1;durP1;ratioP1;P2;durP2;ratioP2
261;SDS011;114;48.260;10.988;2022-10-16T00:01:09;2.70;;;2.30;;
261;SDS011;114;48.260;10.988;2022-10-16T00:03:36;2.07;;;1.87;;
261;SDS011;114;48.260;10.988;2022-10-16T00:06:03;7.30;;;2.00;;
261;SDS011;114;48.260;10.988;2022-10-16T00:08:29;11.30;;;2.37;;
261;SDS011;114;48.260;10.988;2022-10-16T00:11:03;4.97;;;1.97;;
261;SDS011;114;48.260;10.988;2022-10-16T00:13:50;2.67;;;2.27;;
261;SDS011;114;48.260;10.988;2022-10-16T00:16:19;7.30;;;1.80;;
261;SDS011;114;48.260;10.988;2022-10-16T00:18:45;4.67;;;1.90;;
261;SDS011;114;48.260;10.988;2022-10-16T00:21:16;6.20;;;1.90;;
261;SDS011;114;48.260;10.988;2022-10-16T00:23:45;2.40;;;1.73;;
261;SDS011;114;48.260;10.988;2022-10-16T00:26:12;2.20;;;2.03;;
261;SDS011;114;48.260;10.988;2022-10-16T00:28:40;2.90;;;1.70;;
261;SDS011;114;48.260;10.988;2022-10-16T00:31:07;1.57;;;1.47;;
261;SDS011;114;48.260;10.988;2022-10-16T00:33:34;4.60;;;1.83;;
261;SDS011;114;48.260;10.988;2022-10-16T00:36:02;3.23;;;1.80;;
261;SDS011;114;48.260;10.988;2022-10-16T00:38:29;10.90;;;1.87;;
261;SDS011;114;48.260;10.988;2022-10-16T00:40:55;2.00;;;1.33;;
261;SDS011;114;48.260;10.988;2022-10-16T00:43:38;3.20;;;1.30;;
261;SDS011;114;48.260;10.988;2022-10-16T00:46:11;2.10;;;1.80;;
261;SDS011;114;48.260;10.988;2022-10-16T00:48:42;1.20;;;1.10;;
261;SDS011;114;48.260;10.988;2022-10-16T00:51:15;1.60;;;1.50;;
261;SDS011;114;48.260;10.988;2022-10-16T00:53:42;6.00;;;1.73;;
261;SDS011;114;48.260;10.988;2022-10-16T00:56:08;1.63;;;1.53;;
261;SDS011;114;48.260;10.988;2022-10-16T00:58:33;3.47;;;1.80;;
261;SDS011;114;48.260;10.988;2022-10-16T01:00:59;16.53;;;3.70;;
261;SDS011;114;48.260;10.988;2022-10-16T01:03:29;14.63;;;1.87;;
261;SDS011;114;48.260;10.988;2022-10-16T01:11:28;1.60;;;1.50;;
261;SDS011;114;48.260;10.988;2022-10-16T01:17:06;9.17;;;1.63;;
261;SDS011;114;48.260;10.988;2022-10-16T01:19:50;4.40;;;1.70;;
261;SDS011;114;48.260;10.988;2022-10-16T01:22:53;6.63;;;1.60;;
261;SDS011;114;48.260;10.988;2022-10-16T01:28:21;3.10;;;1.50;;
261;SDS011;114;48.260;10.988;2022-10-16T01:30:53;20.20;;;1.77;;
261;SDS011;114;48.260;10.988;2022-10-16T01:33:24;1.57;;;1.47;;
261;SDS011;114;48.260;10.988;2022-10-16T01:36:00;3.70;;;1.43;;
261;SDS011;114;48.260;10.988;2022-10-16T01:38:33;6.07;;;1.50;;
261;SDS011;114;48.260;10.988;2022-10-16T01:41:07;3.83;;;1.40;;
261;SDS011;114;48.260;10.988;2022-10-16T01:43:43;4.73;;;1.33;;
261;SDS011;114;48.260;10.988;2022-10-16T01:46:14;5.90;;;1.23;;
261;SDS011;114;48.260;10.988;2022-10-16T01:48:43;2.63;;;1.20;;
261;SDS011;114;48.260;10.988;2022-10-16T01:51:10;3.70;;;1.03;;
261;SDS011;114;48.260;10.988;2022-10-16T01:53:39;3.47;;;1.47;;
261;SDS011;114;48.260;10.988;2022-10-16T01:56:09;1.50;;;1.40;;
261;SDS011;114;48.260;10.988;2022-10-16T01:58:41;3.97;;;1.53;;
261;SDS011;114;48.260;10.988;2022-10-16T02:01:11;4.60;;;1.30;;
261;SDS011;114;48.260;10.988;2022-10-16T02:03:40;2.53;;;1.50;;
261;SDS011;114;48.260;10.988;2022-10-16T02:06:08;2.60;;;1.10;;
261;SDS011;114;48.260;10.988;2022-10-16T02:08:34;8.60;;;1.20;;
261;SDS011;114;48.260;10.988;2022-10-16T02:11:01;1.50;;;1.10;;
261;SDS011;114;48.260;10.988;2022-10-16T02:13:30;3.17;;;0.93;;
261;SDS011;114;48.260;10.988;2022-10-16T02:15:57;1.43;;;1.20;;
261;SDS011;114;48.260;10.988;2022-10-16T02:18:23;1.83;;;0.80;;
261;SDS011;114;48.260;10.988;2022-10-16T02:23:50;4.30;;;1.00;;
261;SDS011;114;48.260;10.988;2022-10-16T02:26:25;2.93;;;1.30;;
261;SDS011;114;48.260;10.988;2022-10-16T02:28:57;1.30;;;1.20;;
261;SDS011;114;48.260;10.988;2022-10-16T02:31:30;11.43;;;1.10;;
261;SDS011;114;48.260;10.988;2022-10-16T02:33:59;8.77;;;1.00;;
261;SDS011;114;48.260;10.988;2022-10-16T02:36:28;7.80;;;1.50;;
261;SDS011;114;48.260;10.988;2022-10-16T02:38:55;3.03;;;1.13;;
261;SDS011;114;48.260;10.988;2022-10-16T02:41:22;2.97;;;1.10;;
261;SDS011;114;48.260;10.988;2022-10-16T02:43:48;9.83;;;1.50;;
261;SDS011;114;48.260;10.988;2022-10-16T02:46:14;6.50;;;1.23;;
261;SDS011;114;48.260;10.988;2022-10-16T02:48:42;2.70;;;1.00;;
261;SDS011;114;48.260;10.988;2022-10-16T02:51:07;4.73;;;1.10;;
261;SDS011;114;48.260;10.988;2022-10-16T02:53:33;4.23;;;1.37;;
261;SDS011;114;48.260;10.988;2022-10-16T02:55:59;5.80;;;1.20;;
261;SDS011;114;48.260;10.988;2022-10-16T02:58:24;3.47;;;1.20;;
261;SDS011;114;48.260;10.988;2022-10-16T03:00:50;1.40;;;1.40;;
261;SDS011;114;48.260;10.988;2022-10-16T03:03:16;1.53;;;1.10;;
261;SDS011;114;48.260;10.988;2022-10-16T03:05:43;8.43;;;1.13;;
261;SDS011;114;48.260;10.988;2022-10-16T03:08:11;1.20;;;1.20;;
261;SDS011;114;48.260;10.988;2022-10-16T03:10:39;0.90;;;0.90;;
261;SDS011;114;48.260;10.988;2022-10-16T03:13:05;1.27;;;1.10;;
261;SDS011;114;48.260;10.988;2022-10-16T03:15:31;3.40;;;0.90;;
261;SDS011;114;48.260;10.988;2022-10-16T03:17:59;1.97;;;1.33;;
261;SDS011;114;48.260;10.988;2022-10-16T03:20:25;0.80;;;0.80;;
261;SDS011;114;48.260;10.988;2022-10-16T03:22:51;1.20;;;0.80;;
261;SDS011;114;48.260;10.988;2022-10-16T03:25:17;1.93;;;0.90;;
261;SDS011;114;48.260;10.988;2022-10-16T03:27:43;10.63;;;1.43;;
261;SDS011;114;48.260;10.988;2022-10-16T03:30:09;3.07;;;0.83;;
261;SDS011;114;48.260;10.988;2022-10-16T03:32:35;9.10;;;1.20;;
261;SDS011;114;48.260;10.988;2022-10-16T03:35:00;9.67;;;1.00;;
261;SDS011;114;48.260;10.988;2022-10-16T03:37:26;4.93;;;1.40;;
261;SDS011;114;48.260;10.988;2022-10-16T03:39:52;6.10;;;0.97;;
261;SDS011;114;48.260;10.988;2022-10-16T03:42:18;1.20;;;0.83;;
261;SDS011;114;48.260;10.988;2022-10-16T03:44:43;2.70;;;0.93;;
261;SDS011;114;48.260;10.988;2022-10-16T03:47:09;0.67;;;0.67;;
261;SDS011;114;48.260;10.988;2022-10-16T03:49:36;2.13;;;0.80;;
261;SDS011;114;48.260;10.988;2022-10-16T03:52:01;1.97;;;0.90;;
261;SDS011;114;48.260;10.988;2022-10-16T03:54:27;2.20;;;0.60;;
261;SDS011;114;48.260;10.988;2022-10-16T03:56:53;1.50;;;1.40;;
261;SDS011;114;48.260;10.988;2022-10-16T03:59:18;2.00;;;1.10;;
261;SDS011;114;48.260;10.988;2022-10-16T04:01:44;5.03;;;1.37;;
261;SDS011;114;48.260;10.988;2022-10-16T04:04:10;1.50;;;0.83;;
261;SDS011;114;48.260;10.988;2022-10-16T04:06:36;3.60;;;0.93;;
261;SDS011;114;48.260;10.988;2022-10-16T04:09:01;6.37;;;1.17;;
261;SDS011;114;48.260;10.988;2022-10-16T04:11:27;4.27;;;1.07;;
261;SDS011;114;48.260;10.988;2022-10-16T04:13:54;3.90;;;1.40;;
261;SDS011;114;48.260;10.988;2022-10-16T04:16:19;6.67;;;1.37;;
261;SDS011;114;48.260;10.988;2022-10-16T04:18:45;3.53;;;1.00;;
261;SDS011;114;48.260;10.988;2022-10-16T04:21:11;3.60;;;0.93;;
261;SDS011;114;48.260;10.988;2022-10-16T04:23:36;1.23;;;1.10;;
261;SDS011;114;48.260;10.988;2022-10-16T04:26:02;3.57;;;0.97;;
261;SDS011;114;48.260;10.988;2022-10-16T04:28:28;3.27;;;1.00;;
261;SDS011;114;48.260;10.988;2022-10-16T04:30:54;7.60;;;0.97;;
261;SDS011;114;48.260;10.988;2022-10-16T04:33:19;1.67;;;0.80;;
261;SDS011;114;48.260;10.988;2022-10-16T04:35:45;3.80;;;0.70;;
261;SDS011;114;48.260;10.988;2022-10-16T04:38:11;2.47;;;1.40;;
261;SDS011;114;48.260;10.988;2022-10-16T04:40:36;6.00;;;0.90;;
261;SDS011;114;48.260;10.988;2022-10-16T04:43:02;8.97;;;3.10;;
261;SDS011;114;48.260;10.988;2022-10-16T04:45:29;2.40;;;1.00;;
261;SDS011;114;48.260;10.988;2022-10-16T04:47:58;1.83;;;1.27;;
261;SDS011;114;48.260;10.988;2022-10-16T04:50:25;4.13;;;1.00;;
261;SDS011;114;48.260;10.988;2022-10-16T04:52:51;2.97;;;1.27;;
261;SDS011;114;48.260;10.988;2022-10-16T04:55:17;3.13;;;1.30;;
261;SDS011;114;48.260;10.988;2022-10-16T04:57:42;1.73;;;1.20;;
261;SDS011;114;48.260;10.988;2022-10-16T05:00:08;2.60;;;0.80;;
261;SDS011;114;48.260;10.988;2022-10-16T05:02:34;1.00;;;0.90;;
261;SDS011;114;48.260;10.988;2022-10-16T05:05:00;6.73;;;0.70;;
261;SDS011;114;48.260;10.988;2022-10-16T05:07:26;1.30;;;1.20;;
261;SDS011;114;48.260;10.988;2022-10-16T05:09:51;0.87;;;0.87;;
261;SDS011;114;48.260;10.988;2022-10-16T05:12:18;8.67;;;1.40;;
261;SDS011;114;48.260;10.988;2022-10-16T05:14:43;1.83;;;1.30;;
261;SDS011;114;48.260;10.988;2022-10-16T05:17:09;1.40;;;1.30;;
261;SDS011;114;48.260;10.988;2022-10-16T05:19:35;1.70;;;1.33;;
261;SDS011;114;48.260;10.988;2022-10-16T05:22:02;3.00;;;1.40;;
261;SDS011;114;48.260;10.988;2022-10-16T05:24:28;1.00;;;1.00;;
261;SDS011;114;48.260;10.988;2022-10-16T05:26:54;3.70;;;0.90;;
261;SDS011;114;48.260;10.988;2022-10-16T05:29:20;2.03;;;1.33;;
261;SDS011;114;48.260;10.988;2022-10-16T05:31:46;10.53;;;6.63;;
261;SDS011;114;48.260;10.988;2022-10-16T05:34:11;10.40;;;4.20;;
261;SDS011;114;48.260;10.988;2022-10-16T05:36:37;4.53;;;2.80;;
261;SDS011;114;48.260;10.988;2022-10-16T05:39:03;6.83;;;1.60;;
261;SDS011;114;48.260;10.988;2022-10-16T05:41:29;2.20;;;1.30;;
261;SDS011;114;48.260;10.988;2022-10-16T05:43:56;2.80;;;1.70;;
261;SDS011;114;48.260;10.988;2022-10-16T05:46:23;5.63;;;1.57;;
261;SDS011;114;48.260;10.988;2022-10-16T05:48:51;3.03;;;1.27;;
261;SDS011;114;48.260;10.988;2022-10-16T05:51:18;2.97;;;1.30;;
261;SDS011;114;48.260;10.988;2022-10-16T05:53:43;1.10;;;1.00;;
261;SDS011;114;48.260;10.988;2022-10-16T05:56:10;1.83;;;1.47;;
261;SDS011;114;48.260;10.988;2022-10-16T05:58:38;2.80;;;0.80;;
261;SDS011;114;48.260;10.988;2022-10-16T06:01:07;7.00;;;1.20;;
261;SDS011;114;48.260;10.988;2022-10-16T06:03:36;11.30;;;4.97;;
261;SDS011;114;48.260;10.988;2022-10-16T06:06:15;11.67;;;8.37;;
261;SDS011;114;48.260;10.988;2022-10-16T06:08:43;16.57;;;8.93;;
261;SDS011;114;48.260;10.988;2022-10-16T06:11:13;10.60;;;6.73;;
261;SDS011;114;48.260;10.988;2022-10-16T06:13:43;2.67;;;2.37;;
261;SDS011;114;48.260;10.988;2022-10-16T06:16:11;11.90;;;2.50;;
261;SDS011;114;48.260;10.988;2022-10-16T06:18:37;5.10;;;3.17;;
261;SDS011;114;48.260;10.988;2022-10-16T06:21:07;3.30;;;2.40;;
261;SDS011;114;48.260;10.988;2022-10-16T06:23:37;4.63;;;2.77;;
261;SDS011;114;48.260;10.988;2022-10-16T06:26:07;2.90;;;2.00;;
261;SDS011;114;48.260;10.988;2022-10-16T06:28:34;5.87;;;3.30;;
261;SDS011;114;48.260;10.988;2022-10-16T06:31:00;3.27;;;2.60;;
261;SDS011;114;48.260;10.988;2022-10-16T06:33:26;3.50;;;3.20;;
261;SDS011;114;48.260;10.988;2022-10-16T06:35:52;3.30;;;3.10;;
261;SDS011;114;48.260;10.988;2022-10-16T06:38:18;6.23;;;4.13;;
261;SDS011;114;48.260;10.988;2022-10-16T06:40:43;17.43;;;5.00;;
261;SDS011;114;48.260;10.988;2022-10-16T06:43:09;7.67;;;4.87;;
261;SDS011;114;48.260;10.988;2022-10-16T06:45:35;13.57;;;3.90;;
261;SDS011;114;48.260;10.988;2022-10-16T06:48:00;9.60;;;4.93;;
261;SDS011;114;48.260;10.988;2022-10-16T06:50:26;6.07;;;3.50;;
261;SDS011;114;48.260;10.988;2022-10-16T06:52:52;3.53;;;2.50;;
261;SDS011;114;48.260;10.988;2022-10-16T06:55:18;3.60;;;1.83;;
261;SDS011;114;48.260;10.988;2022-10-16T06:57:46;7.67;;;2.20;;
261;SDS011;114;48.260;10.988;2022-10-16T07:00:13;3.40;;;1.47;;
261;SDS011;114;48.260;10.988;2022-10-16T07:02:39;4.37;;;1.37;;
261;SDS011;114;48.260;10.988;2022-10-16T07:05:04;3.20;;;1.30;;
261;SDS011;114;48.260;10.988;2022-10-16T07:07:30;1.67;;;1.50;;
261;SDS011;114;48.260;10.988;2022-10-16T07:09:57;2.63;;;1.37;;
261;SDS011;114;48.260;10.988;2022-10-16T07:12:22;3.17;;;1.67;;
261;SDS011;114;48.260;10.988;2022-10-16T07:14:48;2.00;;;1.57;;
261;SDS011;114;48.260;10.988;2022-10-16T07:17:17;2.87;;;1.40;;
261;SDS011;114;48.260;10.988;2022-10-16T07:19:42;2.60;;;1.70;;
261;SDS011;114;48.260;10.988;2022-10-16T07:22:10;4.50;;;3.00;;
261;SDS011;114;48.260;10.988;2022-10-16T07:24:35;3.47;;;2.70;;
261;SDS011;114;48.260;10.988;2022-10-16T07:27:01;3.07;;;2.80;;
261;SDS011;114;48.260;10.988;2022-10-16T07:29:27;8.93;;;2.07;;
261;SDS011;114;48.260;10.988;2022-10-16T07:31:52;1.83;;;1.73;;
261;SDS011;114;48.260;10.988;2022-10-16T07:34:18;3.37;;;3.07;;
261;SDS011;114;48.260;10.988;2022-10-16T07:36:49;1.67;;;1.10;;
261;SDS011;114;48.260;10.988;2022-10-16T07:39:15;2.80;;;1.20;;
261;SDS011;114;48.260;10.988;2022-10-16T07:41:42;2.27;;;1.27;;
261;SDS011;114;48.260;10.988;2022-10-16T07:44:08;3.00;;;1.10;;
261;SDS011;114;48.260;10.988;2022-10-16T07:46:34;2.80;;;1.20;;
261;SDS011;114;48.260;10.988;2022-10-16T07:49:01;4.07;;;1.20;;
261;SDS011;114;48.260;10.988;2022-10-16T07:51:27;3.30;;;1.00;;
261;SDS011;114;48.260;10.988;2022-10-16T07:53:53;2.37;;;1.33;;
261;SDS011;114;48.260;10.988;2022-10-16T07:56:19;2.60;;;0.93;;
261;SDS011;114;48.260;10.988;2022-10-16T07:58:46;3.33;;;1.53;;
261;SDS011;114;48.260;10.988;2022-10-16T08:01:14;2.47;;;1.13;;
261;SDS011;114;48.260;10.988;2022-10-16T08:03:42;2.10;;;1.20;;
261;SDS011;114;48.260;10.988;2022-10-16T08:06:09;2.80;;;1.00;;
261;SDS011;114;48.260;10.988;2022-10-16T08:08:35;8.63;;;1.40;;
261;SDS011;114;48.260;10.988;2022-10-16T08:11:00;2.73;;;1.27;;
261;SDS011;114;48.260;10.988;2022-10-16T08:13:28;1.43;;;1.33;;
261;SDS011;114;48.260;10.988;2022-10-16T08:15:56;4.13;;;1.10;;
261;SDS011;114;48.260;10.988;2022-10-16T08:18:22;1.20;;;1.20;;
261;SDS011;114;48.260;10.988;2022-10-16T08:20:54;2.50;;;0.80;;
261;SDS011;114;48.260;10.988;2022-10-16T08:23:25;1.10;;;0.70;;
261;SDS011;114;48.260;10.988;2022-10-16T08:25:53;0.93;;;0.83;;
261;SDS011;114;48.260;10.988;2022-10-16T08:28:20;0.93;;;0.73;;
261;SDS011;114;48.260;10.988;2022-10-16T08:30:46;1.00;;;0.67;;
261;SDS011;114;48.260;10.988;2022-10-16T08:33:12;7.33;;;0.53;;
261;SDS011;114;48.260;10.988;2022-10-16T08:35:38;0.90;;;0.90;;
261;SDS011;114;48.260;10.988;2022-10-16T08:38:05;6.97;;;1.50;;
261;SDS011;114;48.260;10.988;2022-10-16T08:40:31;1.10;;;0.90;;
261;SDS011;114;48.260;10.988;2022-10-16T08:49:00;0.80;;;0.80;;
261;SDS011;114;48.260;10.988;2022-10-16T08:51:32;1.17;;;1.17;;
261;SDS011;114;48.260;10.988;2022-10-16T08:54:03;2.90;;;0.70;;
261;SDS011;114;48.260;10.988;2022-10-16T08:56:30;1.30;;;0.80;;
261;SDS011;114;48.260;10.988;2022-10-16T08:58:57;1.00;;;0.73;;
261;SDS011;114;48.260;10.988;2022-10-16T09:01:25;0.60;;;0.60;;
261;SDS011;114;48.260;10.988;2022-10-16T09:06:48;2.03;;;1.60;;
261;SDS011;114;48.260;10.988;2022-10-16T09:19:58;1.10;;;0.80;;
261;SDS011;114;48.260;10.988;2022-10-16T09:22:44;1.43;;;0.70;;
261;SDS011;114;48.260;10.988;2022-10-16T09:25:11;9.03;;;0.80;;
261;SDS011;114;48.260;10.988;2022-10-16T09:27:39;0.70;;;0.60;;
261;SDS011;114;48.260;10.988;2022-10-16T09:30:13;1.17;;;0.70;;
261;SDS011;114;48.260;10.988;2022-10-16T09:32:41;2.60;;;0.70;;
261;SDS011;114;48.260;10.988;2022-10-16T09:35:31;1.43;;;0.63;;
261;SDS011;114;48.260;10.988;2022-10-16T09:38:00;1.17;;;0.80;;
261;SDS011;114;48.260;10.988;2022-10-16T09:40:27;6.67;;;0.63;;
261;SDS011;114;48.260;10.988;2022-10-16T09:43:22;1.53;;;0.50;;
261;SDS011;114;48.260;10.988;2022-10-16T09:45:58;0.80;;;0.60;;
261;SDS011;114;48.260;10.988;2022-10-16T09:48:49;1.67;;;0.60;;
261;SDS011;114;48.260;10.988;2022-10-16T09:51:21;0.80;;;0.70;;
261;SDS011;114;48.260;10.988;2022-10-16T09:53:53;0.70;;;0.60;;
261;SDS011;114;48.260;10.988;2022-10-16T09:56:24;0.97;;;0.70;;
261;SDS011;114;48.260;10.988;2022-10-16T09:58:57;0.70;;;0.50;;
261;SDS011;114;48.260;10.988;2022-10-16T10:01:28;1.43;;;0.70;;
261;SDS011;114;48.260;10.988;2022-10-16T10:04:03;0.80;;;0.60;;
261;SDS011;114;48.260;10.988;2022-10-16T10:06:34;3.63;;;1.00;;
261;SDS011;114;48.260;10.988;2022-10-16T10:09:06;0.60;;;0.60;;
261;SDS011;114;48.260;10.988;2022-10-16T10:16:51;1.23;;;0.67;;
261;SDS011;114;48.260;10.988;2022-10-16T10:19:26;1.10;;;0.70;;
261;SDS011;114;48.260;10.988;2022-10-16T10:21:52;1.33;;;0.90;;
261;SDS011;114;48.260;10.988;2022-10-16T10:24:20;2.40;;;0.53;;
261;SDS011;114;48.260;10.988;2022-10-16T10:27:00;0.70;;;0.70;;
261;SDS011;114;48.260;10.988;2022-10-16T10:34:56;3.00;;;0.70;;
261;SDS011;114;48.260;10.988;2022-10-16T10:40:21;0.50;;;0.40;;
261;SDS011;114;48.260;10.988;2022-10-16T10:43:16;2.83;;;0.40;;
261;SDS011;114;48.260;10.988;2022-10-16T10:45:59;0.80;;;0.50;;
261;SDS011;114;48.260;10.988;2022-10-16T10:49:02;1.80;;;0.40;;
261;SDS011;114;48.260;10.988;2022-10-16T10:51:26;1.63;;;0.50;;
261;SDS011;114;48.260;10.988;2022-10-16T10:59:40;2.87;;;0.40;;
261;SDS011;114;48.260;10.988;2022-10-16T11:02:57;0.50;;;0.40;;
261;SDS011;114;48.260;10.988;2022-10-16T11:19:11;3.07;;;0.40;;
261;SDS011;114;48.260;10.988;2022-10-16T11:22:32;2.70;;;0.40;;
261;SDS011;114;48.260;10.988;2022-10-16T11:27:35;1.25;;;0.40;;
261;SDS011;114;48.260;10.988;2022-10-16T11:30:12;2.83;;;0.40;;
261;SDS011;114;48.260;10.988;2022-10-16T11:38:03;0.60;;;0.50;;
261;SDS011;114;48.260;10.988;2022-10-16T11:40:41;1.67;;;0.57;;
261;SDS011;114;48.260;10.988;2022-10-16T11:43:19;0.90;;;0.50;;
261;SDS011;114;48.260;10.988;2022-10-16T11:46:05;2.15;;;0.50;;
261;SDS011;114;48.260;10.988;2022-10-16T11:51:35;2.45;;;0.45;;
261;SDS011;114;48.260;10.988;2022-10-16T11:54:26;0.57;;;0.40;;
261;SDS011;114;48.260;10.988;2022-10-16T11:57:00;0.85;;;0.40;;
261;SDS011;114;48.260;10.988;2022-10-16T11:59:38;0.88;;;0.88;;
261;SDS011;114;48.260;10.988;2022-10-16T12:05:18;0.93;;;0.40;;
261;SDS011;114;48.260;10.988;2022-10-16T12:08:10;0.57;;;0.32;;
261;SDS011;114;48.260;10.988;2022-10-16T12:10:41;0.70;;;0.50;;
261;SDS011;114;48.260;10.988;2022-10-16T12:18:41;1.50;;;0.40;;
261;SDS011;114;48.260;10.988;2022-10-16T12:21:09;0.52;;;0.40;;
261;SDS011;114;48.260;10.988;2022-10-16T12:23:54;1.73;;;0.47;;
261;SDS011;114;48.260;10.988;2022-10-16T12:26:26;1.40;;;0.40;;
261;SDS011;114;48.260;10.988;2022-10-16T12:31:52;1.20;;;0.40;;
261;SDS011;114;48.260;10.988;2022-10-16T12:34:29;2.72;;;0.40;;
261;SDS011;114;48.260;10.988;2022-10-16T12:37:20;7.30;;;0.55;;
261;SDS011;114;48.260;10.988;2022-10-16T12:39:53;2.78;;;0.40;;
261;SDS011;114;48.260;10.988;2022-10-16T12:42:22;7.45;;;0.50;;
261;SDS011;114;48.260;10.988;2022-10-16T12:44:51;4.38;;;2.67;;
261;SDS011;114;48.260;10.988;2022-10-16T12:47:35;3.30;;;0.63;;
261;SDS011;114;48.260;10.988;2022-10-16T12:50:03;1.40;;;0.68;;
261;SDS011;114;48.260;10.988;2022-10-16T12:52:48;0.52;;;0.50;;
261;SDS011;114;48.260;10.988;2022-10-16T12:55:18;1.15;;;0.70;;
261;SDS011;114;48.260;10.988;2022-10-16T13:30:28;2.92;;;0.50;;
261;SDS011;114;48.260;10.988;2022-10-16T13:33:13;0.60;;;0.40;;
261;SDS011;114;48.260;10.988;2022-10-16T13:35:56;1.58;;;0.40;;
261;SDS011;114;48.260;10.988;2022-10-16T13:38:24;12.82;;;0.90;;
261;SDS011;114;48.260;10.988;2022-10-16T13:43:23;0.40;;;0.30;;
261;SDS011;114;48.260;10.988;2022-10-16T13:45:54;0.80;;;0.50;;
261;SDS011;114;48.260;10.988;2022-10-16T13:48:30;5.63;;;0.50;;
261;SDS011;114;48.260;10.988;2022-10-16T13:53:29;1.30;;;0.40;;
261;SDS011;114;48.260;10.988;2022-10-16T13:55:56;3.53;;;0.40;;
261;SDS011;114;48.260;10.988;2022-10-16T13:58:22;0.50;;;0.40;;
261;SDS011;114;48.260;10.988;2022-10-16T14:01:01;0.50;;;0.40;;
261;SDS011;114;48.260;10.988;2022-10-16T14:03:40;0.40;;;0.30;;
261;SDS011;114;48.260;10.988;2022-10-16T14:06:11;0.40;;;0.40;;
261;SDS011;114;48.260;10.988;2022-10-16T14:08:45;0.68;;;0.40;;
261;SDS011;114;48.260;10.988;2022-10-16T14:11:20;0.95;;;0.57;;
261;SDS011;114;48.260;10.988;2022-10-16T14:13:49;2.15;;;0.40;;
261;SDS011;114;48.260;10.988;2022-10-16T14:18:59;1.10;;;0.40;;
261;SDS011;114;48.260;10.988;2022-10-16T14:21:31;2.43;;;0.40;;
261;SDS011;114;48.260;10.988;2022-10-16T14:23:59;5.50;;;0.50;;
261;SDS011;114;48.260;10.988;2022-10-16T14:26:49;0.50;;;0.40;;
261;SDS011;114;48.260;10.988;2022-10-16T14:29:17;0.87;;;0.57;;
261;SDS011;114;48.260;10.988;2022-10-16T14:31:59;1.80;;;1.70;;
261;SDS011;114;48.260;10.988;2022-10-16T14:34:33;1.17;;;1.10;;
261;SDS011;114;48.260;10.988;2022-10-16T14:37:26;1.00;;;0.50;;
261;SDS011;114;48.260;10.988;2022-10-16T14:39:55;0.60;;;0.50;;
261;SDS011;114;48.260;10.988;2022-10-16T14:42:22;1.40;;;0.50;;
261;SDS011;114;48.260;10.988;2022-10-16T14:44:50;2.60;;;0.50;;
261;SDS011;114;48.260;10.988;2022-10-16T14:47:22;0.90;;;0.60;;
261;SDS011;114;48.260;10.988;2022-10-16T14:49:51;0.70;;;0.60;;
261;SDS011;114;48.260;10.988;2022-10-16T14:52:20;0.77;;;0.50;;
261;SDS011;114;48.260;10.988;2022-10-16T14:54:48;0.50;;;0.40;;
261;SDS011;114;48.260;10.988;2022-10-16T14:57:18;4.73;;;0.57;;
261;SDS011;114;48.260;10.988;2022-10-16T14:59:48;2.17;;;0.60;;
261;SDS011;114;48.260;10.988;2022-10-16T15:02:25;1.40;;;0.57;;
261;SDS011;114;48.260;10.988;2022-10-16T15:04:55;0.60;;;0.50;;
261;SDS011;114;48.260;10.988;2022-10-16T15:07:21;2.93;;;0.40;;
261;SDS011;114;48.260;10.988;2022-10-16T15:09:47;0.67;;;0.50;;
261;SDS011;114;48.260;10.988;2022-10-16T15:12:13;7.13;;;0.50;;
261;SDS011;114;48.260;10.988;2022-10-16T15:14:39;1.37;;;0.80;;
261;SDS011;114;48.260;10.988;2022-10-16T15:17:08;1.10;;;0.50;;
261;SDS011;114;48.260;10.988;2022-10-16T15:19:36;1.00;;;0.83;;
261;SDS011;114;48.260;10.988;2022-10-16T15:22:02;1.03;;;0.60;;
261;SDS011;114;48.260;10.988;2022-10-16T15:24:28;5.40;;;0.80;;
261;SDS011;114;48.260;10.988;2022-10-16T15:26:54;0.97;;;0.90;;
261;SDS011;114;48.260;10.988;2022-10-16T15:29:19;0.90;;;0.90;;
261;SDS011;114;48.260;10.988;2022-10-16T15:31:46;0.93;;;0.83;;
261;SDS011;114;48.260;10.988;2022-10-16T15:34:12;2.37;;;0.60;;
261;SDS011;114;48.260;10.988;2022-10-16T15:36:39;6.43;;;2.90;;
261;SDS011;114;48.260;10.988;2022-10-16T15:39:11;1.53;;;1.20;;
261;SDS011;114;48.260;10.988;2022-10-16T15:41:42;4.23;;;1.73;;
261;SDS011;114;48.260;10.988;2022-10-16T15:44:09;4.53;;;2.07;;
261;SDS011;114;48.260;10.988;2022-10-16T15:46:35;1.27;;;1.17;;
261;SDS011;114;48.260;10.988;2022-10-16T15:49:02;4.57;;;1.00;;
261;SDS011;114;48.260;10.988;2022-10-16T15:51:29;0.93;;;0.67;;
261;SDS011;114;48.260;10.988;2022-10-16T15:53:59;1.80;;;0.70;;
261;SDS011;114;48.260;10.988;2022-10-16T15:56:26;1.53;;;0.70;;
261;SDS011;114;48.260;10.988;2022-10-16T15:58:53;0.70;;;0.70;;
261;SDS011;114;48.260;10.988;2022-10-16T16:01:20;1.08;;;0.60;;
261;SDS011;114;48.260;10.988;2022-10-16T16:03:46;3.70;;;0.70;;
261;SDS011;114;48.260;10.988;2022-10-16T16:06:12;2.40;;;1.03;;
261;SDS011;114;48.260;10.988;2022-10-16T16:08:38;5.00;;;2.63;;
261;SDS011;114;48.260;10.988;2022-10-16T16:11:06;9.50;;;3.77;;
261;SDS011;114;48.260;10.988;2022-10-16T16:13:33;13.90;;;3.70;;
261;SDS011;114;48.260;10.988;2022-10-16T16:16:00;7.10;;;2.93;;
261;SDS011;114;48.260;10.988;2022-10-16T16:18:25;5.33;;;2.43;;
261;SDS011;114;48.260;10.988;2022-10-16T16:20:54;9.80;;;3.67;;
261;SDS011;114;48.260;10.988;2022-10-16T16:23:20;12.40;;;2.70;;
261;SDS011;114;48.260;10.988;2022-10-16T16:26:01;14.07;;;2.57;;
261;SDS011;114;48.260;10.988;2022-10-16T16:28:51;16.33;;;2.40;;
261;SDS011;114;48.260;10.988;2022-10-16T16:31:17;16.43;;;2.50;;
261;SDS011;114;48.260;10.988;2022-10-16T16:33:43;14.83;;;2.40;;
261;SDS011;114;48.260;10.988;2022-10-16T16:36:10;9.97;;;2.33;;
261;SDS011;114;48.260;10.988;2022-10-16T16:38:36;10.93;;;2.40;;
261;SDS011;114;48.260;10.988;2022-10-16T16:41:11;5.57;;;2.20;;
261;SDS011;114;48.260;10.988;2022-10-16T16:43:38;10.03;;;2.10;;
261;SDS011;114;48.260;10.988;2022-10-16T16:46:04;9.57;;;2.10;;
261;SDS011;114;48.260;10.988;2022-10-16T16:48:29;10.10;;;1.77;;
261;SDS011;114;48.260;10.988;2022-10-16T16:51:02;14.50;;;1.90;;
261;SDS011;114;48.260;10.988;2022-10-16T16:53:33;4.20;;;1.47;;
261;SDS011;114;48.260;10.988;2022-10-16T16:56:03;3.67;;;1.93;;
261;SDS011;114;48.260;10.988;2022-10-16T16:58:30;3.20;;;1.93;;
261;SDS011;114;48.260;10.988;2022-10-16T17:00:56;3.97;;;1.80;;
261;SDS011;114;48.260;10.988;2022-10-16T17:03:27;6.07;;;2.10;;
261;SDS011;114;48.260;10.988;2022-10-16T17:06:01;6.40;;;1.90;;
261;SDS011;114;48.260;10.988;2022-10-16T17:08:28;8.33;;;1.90;;
261;SDS011;114;48.260;10.988;2022-10-16T17:10:55;11.00;;;1.63;;
261;SDS011;114;48.260;10.988;2022-10-16T17:13:22;7.40;;;2.00;;
261;SDS011;114;48.260;10.988;2022-10-16T17:15:49;6.63;;;2.20;;
261;SDS011;114;48.260;10.988;2022-10-16T17:18:15;5.73;;;1.63;;
261;SDS011;114;48.260;10.988;2022-10-16T17:20:44;12.50;;;2.90;;
261;SDS011;114;48.260;10.988;2022-10-16T17:23:10;12.03;;;2.30;;
261;SDS011;114;48.260;10.988;2022-10-16T17:25:40;6.13;;;2.33;;
261;SDS011;114;48.260;10.988;2022-10-16T17:28:06;4.50;;;2.90;;
261;SDS011;114;48.260;10.988;2022-10-16T17:30:33;7.03;;;3.00;;
261;SDS011;114;48.260;10.988;2022-10-16T17:32:59;12.47;;;3.50;;
261;SDS011;114;48.260;10.988;2022-10-16T17:35:26;12.90;;;3.47;;
261;SDS011;114;48.260;10.988;2022-10-16T17:37:52;10.87;;;3.00;;
261;SDS011;114;48.260;10.988;2022-10-16T17:40:18;16.17;;;3.27;;
261;SDS011;114;48.260;10.988;2022-10-16T17:42:44;12.17;;;3.20;;
261;SDS011;114;48.260;10.988;2022-10-16T17:45:11;3.57;;;2.50;;
261;SDS011;114;48.260;10.988;2022-10-16T17:47:36;14.07;;;3.17;;
261;SDS011;114;48.260;10.988;2022-10-16T17:50:05;24.10;;;4.17;;
261;SDS011;114;48.260;10.988;2022-10-16T17:52:33;6.60;;;2.63;;
261;SDS011;114;48.260;10.988;2022-10-16T17:54:59;11.90;;;1.93;;